Time;durP1;ratioP1;P1;durP2;ratioP2;P2;SDS_P1;SDS_P2;PMS_P1;PMS_P2;Temp;Humidity;BMP_temperature;BMP_pressure;BME280_temperature;BME280_humidity;BME280_pressure;Samples;Min_cycle;Max_cycle;Signal;HPM_P1;HPM_P2
2023/09/02 00:01:11;;;;;;;0.20;0.10;;;;;;;;;;4954176;28;20476;-86
2023/09/02 00:03:46;;;;;;;0.57;0.43;;;;;;;;;;4946415;28;20089;-86
2023/09/02 00:06:14;;;;;;;0.20;0.10;;;;;;;;;;4958905;28;20047;-86
2023/09/02 00:08:43;;;;;;;0.20;0.10;;;;;;;;;;4954157;28;20327;-86
2023/09/02 00:11:12;;;;;;;0.20;0.10;;;;;;;;;;4945943;28;20066;-85
2023/09/02 00:13:38;;;;;;;0.20;0.20;;;;;;;;;;4937570;28;20392;-87
2023/09/02 00:16:04;;;;;;;0.30;0.28;;;;;;;;;;4955974;28;20378;-86
2023/09/02 00:18:31;;;;;;;0.20;0.10;;;;;;;;;;4956458;28;20512;-85
2023/09/02 00:21:07;;;;;;;0.20;0.20;;;;;;;;;;4954622;28;20050;-90
2023/09/02 00:23:39;;;;;;;0.20;0.10;;;;;;;;;;4963877;28;20593;-89
2023/09/02 00:26:05;;;;;;;0.25;0.15;;;;;;;;;;4937447;28;20043;-85
2023/09/02 00:28:34;;;;;;;0.30;0.17;;;;;;;;;;4947200;28;20046;-89
2023/09/02 00:31:00;;;;;;;0.30;0.30;;;;;;;;;;4942674;28;20517;-89
2023/09/02 00:33:26;;;;;;;0.50;0.28;;;;;;;;;;4960648;28;20046;-85
2023/09/02 00:35:52;;;;;;;0.20;0.10;;;;;;;;;;4954417;28;20035;-85
2023/09/02 00:38:18;;;;;;;0.30;0.20;;;;;;;;;;4943699;28;20459;-85
2023/09/02 00:40:49;;;;;;;0.20;0.10;;;;;;;;;;4953649;28;20186;-86
2023/09/02 00:43:15;;;;;;;0.30;0.28;;;;;;;;;;4956308;28;20038;-84
2023/09/02 00:45:42;;;;;;;0.20;0.10;;;;;;;;;;4951445;28;20540;-84
2023/09/02 00:48:08;;;;;;;0.20;0.10;;;;;;;;;;4950900;28;20042;-86
2023/09/02 00:50:35;;;;;;;0.20;0.10;;;;;;;;;;4944575;28;20089;-88
2023/09/02 00:53:01;;;;;;;0.20;0.10;;;;;;;;;;4968612;28;20050;-87
2023/09/02 00:55:27;;;;;;;0.20;0.10;;;;;;;;;;4958761;28;20043;-85
2023/09/02 00:57:56;;;;;;;0.30;0.28;;;;;;;;;;4955855;28;20126;-86
2023/09/02 01:00:33;;;;;;;4.03;0.98;;;;;;;;;;4963852;28;20078;-86
2023/09/02 01:03:02;;;;;;;0.20;0.10;;;;;;;;;;4935416;28;20815;-85
2023/09/02 01:05:31;;;;;;;0.50;0.47;;;;;;;;;;4950654;28;20323;-86
2023/09/02 01:07:57;;;;;;;0.20;0.10;;;;;;;;;;4934752;28;20185;-88
2023/09/02 01:10:24;;;;;;;0.20;0.20;;;;;;;;;;4962362;28;20051;-85
2023/09/02 01:12:52;;;;;;;0.20;0.17;;;;;;;;;;4936585;28;20073;-85
2023/09/02 01:15:19;;;;;;;0.20;0.10;;;;;;;;;;4950033;28;20085;-85
2023/09/02 01:17:47;;;;;;;0.20;0.20;;;;;;;;;;4939462;28;20176;-85
2023/09/02 01:20:18;;;;;;;0.20;0.10;;;;;;;;;;4958307;28;20050;-86
2023/09/02 01:23:09;;;;;;;0.20;0.10;;;;;;;;;;4942843;28;20074;-86
2023/09/02 01:25:56;;;;;;;0.68;0.38;;;;;;;;;;4923148;28;20396;-85
2023/09/02 01:28:28;;;;;;;0.20;0.10;;;;;;;;;;4928252;28;20074;-86
2023/09/02 01:30:55;;;;;;;0.20;0.13;;;;;;;;;;4941728;28;20090;-88
2023/09/02 01:33:22;;;;;;;0.20;0.10;;;;;;;;;;4947581;28;20085;-84
2023/09/02 01:35:50;;;;;;;0.20;0.10;;;;;;;;;;4942795;28;20042;-86
2023/09/02 01:38:16;;;;;;;0.20;0.20;;;;;;;;;;4961274;28;20077;-86
2023/09/02 01:40:43;;;;;;;0.20;0.20;;;;;;;;;;4935871;28;20046;-86
2023/09/02 01:43:14;;;;;;;0.22;0.20;;;;;;;;;;4959420;28;20043;-84
2023/09/02 01:45:41;;;;;;;0.20;0.00;;;;;;;;;;4954122;28;20078;-85
2023/09/02 01:48:07;;;;;;;0.20;0.10;;;;;;;;;;4960071;28;20193;-86
2023/09/02 01:50:37;;;;;;;0.20;0.10;;;;;;;;;;4938987;28;20055;-87
2023/09/02 01:53:09;;;;;;;3.83;0.30;;;;;;;;;;4950052;28;20034;-85
2023/09/02 01:55:56;;;;;;;0.20;0.20;;;;;;;;;;4932326;28;20054;-86
2023/09/02 01:58:28;;;;;;;0.20;0.10;;;;;;;;;;4947818;28;20046;-86
2023/09/02 02:01:01;;;;;;;;;;;;;;;;;;4929966;28;20522;-86
2023/09/02 02:03:42;;;;;;;0.20;0.10;;;;;;;;;;4963135;28;19965;-86
2023/09/02 02:06:15;;;;;;;0.20;0.10;;;;;;;;;;4962127;28;20031;-85
2023/09/02 02:08:44;;;;;;;0.55;0.45;;;;;;;;;;4957389;28;20167;-85
2023/09/02 02:11:12;;;;;;;0.20;0.20;;;;;;;;;;4958303;28;20126;-85
2023/09/02 02:13:38;;;;;;;0.20;0.00;;;;;;;;;;4955036;28;20086;-87
2023/09/02 02:16:04;;;;;;;0.20;0.10;;;;;;;;;;4961566;28;20520;-86
2023/09/02 02:18:33;;;;;;;0.20;0.10;;;;;;;;;;4958984;28;20051;-86
2023/09/02 02:21:04;;;;;;;0.20;0.10;;;;;;;;;;4957427;28;20050;-85
2023/09/02 02:23:35;;;;;;;1.00;0.20;;;;;;;;;;4951399;28;20053;-86
2023/09/02 02:26:02;;;;;;;0.20;0.10;;;;;;;;;;4954686;28;20054;-88
2023/09/02 02:28:31;;;;;;;0.20;0.10;;;;;;;;;;4976770;23;20114;-79
2023/09/02 02:30:58;;;;;;;0.20;0.15;;;;;;;;;;4954925;28;20062;-79
2023/09/02 02:33:24;;;;;;;0.20;0.10;;;;;;;;;;4937247;28;20051;-79
2023/09/02 02:35:50;;;;;;;0.28;0.10;;;;;;;;;;4940519;28;20111;-79
2023/09/02 02:38:17;;;;;;;0.20;0.00;;;;;;;;;;4966338;28;20128;-79
2023/09/02 02:40:43;;;;;;;0.20;0.15;;;;;;;;;;4953980;28;20043;-79
2023/09/02 02:43:09;;;;;;;0.20;0.20;;;;;;;;;;4954521;28;20133;-80
2023/09/02 02:45:35;;;;;;;0.20;0.10;;;;;;;;;;4956158;28;20063;-79
2023/09/02 02:48:01;;;;;;;0.30;0.28;;;;;;;;;;4977300;28;20070;-78
2023/09/02 02:50:27;;;;;;;0.20;0.10;;;;;;;;;;4954991;28;20122;-79
2023/09/02 02:52:53;;;;;;;0.28;0.15;;;;;;;;;;4938020;28;20198;-79
2023/09/02 02:55:19;;;;;;;0.35;0.35;;;;;;;;;;4949686;28;20395;-79
2023/09/02 02:57:46;;;;;;;0.28;0.25;;;;;;;;;;4928030;28;20035;-79
2023/09/02 03:00:12;;;;;;;0.30;0.30;;;;;;;;;;4935688;28;20178;-78
2023/09/02 03:02:38;;;;;;;0.20;0.10;;;;;;;;;;4946836;28;20438;-78
2023/09/02 03:05:04;;;;;;;0.22;0.22;;;;;;;;;;4945307;28;20042;-79
2023/09/02 03:07:30;;;;;;;0.20;0.10;;;;;;;;;;4929367;28;20043;-79
2023/09/02 03:09:56;;;;;;;0.20;0.10;;;;;;;;;;4950592;28;20510;-79
2023/09/02 03:12:22;;;;;;;0.20;0.20;;;;;;;;;;4949558;28;20070;-79
2023/09/02 03:14:49;;;;;;;0.20;0.20;;;;;;;;;;4951487;28;20070;-79
2023/09/02 03:17:20;;;;;;;0.98;0.20;;;;;;;;;;4955955;28;20077;-79
2023/09/02 03:19:47;;;;;;;0.32;0.20;;;;;;;;;;4950412;28;20316;-79
2023/09/02 03:22:14;;;;;;;0.20;0.15;;;;;;;;;;4974679;28;20047;-80
2023/09/02 03:24:41;;;;;;;0.30;0.10;;;;;;;;;;4938587;28;20126;-79
2023/09/02 03:27:07;;;;;;;0.20;0.00;;;;;;;;;;4933990;28;20459;-79
2023/09/02 03:29:34;;;;;;;0.20;0.17;;;;;;;;;;4946194;28;20084;-79
2023/09/02 03:32:00;;;;;;;0.20;0.10;;;;;;;;;;4983602;28;20035;-79
2023/09/02 03:34:26;;;;;;;0.20;0.00;;;;;;;;;;4968205;28;20207;-79
2023/09/02 03:36:52;;;;;;;0.30;0.20;;;;;;;;;;4946431;28;20043;-79
2023/09/02 03:39:18;;;;;;;0.28;0.20;;;;;;;;;;4938912;28;20528;-79
2023/09/02 03:41:47;;;;;;;0.50;0.30;;;;;;;;;;4966628;28;20048;-78
2023/09/02 03:44:14;;;;;;;0.20;0.10;;;;;;;;;;4966308;28;20051;-79
2023/09/02 03:46:40;;;;;;;1.23;0.20;;;;;;;;;;4982181;28;20045;-79
2023/09/02 03:49:06;;;;;;;0.55;0.47;;;;;;;;;;4955894;28;20042;-79
2023/09/02 03:51:32;;;;;;;0.20;0.10;;;;;;;;;;4968788;28;20134;-79
2023/09/02 03:53:58;;;;;;;0.20;0.10;;;;;;;;;;4954919;28;20627;-79
2023/09/02 03:56:24;;;;;;;0.30;0.25;;;;;;;;;;4961002;28;20125;-80
2023/09/02 03:58:50;;;;;;;0.75;0.45;;;;;;;;;;4947558;28;20043;-79
2023/09/02 04:01:17;;;;;;;0.20;0.20;;;;;;;;;;4948350;28;20504;-79
2023/09/02 04:03:43;;;;;;;0.30;0.20;;;;;;;;;;4964697;28;20085;-80
2023/09/02 04:06:09;;;;;;;0.20;0.10;;;;;;;;;;4952006;28;20161;-80
2023/09/02 04:08:36;;;;;;;0.20;0.10;;;;;;;;;;4966661;28;20167;-80
2023/09/02 04:11:02;;;;;;;0.32;0.20;;;;;;;;;;4962330;28;20050;-79
2023/09/02 04:13:31;;;;;;;0.20;0.08;;;;;;;;;;4980689;28;20055;-79
2023/09/02 04:15:58;;;;;;;0.20;0.10;;;;;;;;;;4951833;28;20046;-80
2023/09/02 04:18:24;;;;;;;0.40;0.32;;;;;;;;;;4952365;28;20049;-80
2023/09/02 04:20:50;;;;;;;0.20;0.10;;;;;;;;;;4959028;28;20129;-80
2023/09/02 04:23:17;;;;;;;0.20;0.10;;;;;;;;;;4965965;28;20043;-80
2023/09/02 04:25:50;;;;;;;0.52;0.32;;;;;;;;;;4986621;28;20031;-80
2023/09/02 04:28:16;;;;;;;0.40;0.20;;;;;;;;;;4964806;28;20046;-80
2023/09/02 04:30:42;;;;;;;0.20;0.10;;;;;;;;;;4971535;28;20110;-81
2023/09/02 04:33:09;;;;;;;0.45;0.30;;;;;;;;;;4971855;28;20130;-80
2023/09/02 04:35:53;;;;;;;0.25;0.25;;;;;;;;;;4956239;28;20042;-79
2023/09/02 04:38:19;;;;;;;0.20;0.20;;;;;;;;;;4986333;28;20059;-80
2023/09/02 04:40:46;;;;;;;0.30;0.22;;;;;;;;;;4966480;28;20035;-79
2023/09/02 04:43:12;;;;;;;0.20;0.10;;;;;;;;;;4967632;28;20035;-79
2023/09/02 04:45:39;;;;;;;0.57;0.25;;;;;;;;;;4957348;28;20042;-80
2023/09/02 04:48:06;;;;;;;0.20;0.20;;;;;;;;;;4973728;28;21693;-80
2023/09/02 04:50:32;;;;;;;0.47;0.20;;;;;;;;;;4970187;28;20071;-80
2023/09/02 04:52:59;;;;;;;0.20;0.20;;;;;;;;;;4967789;28;20325;-80
2023/09/02 04:55:25;;;;;;;0.20;0.10;;;;;;;;;;4968195;28;20047;-80
2023/09/02 04:57:52;;;;;;;0.20;0.13;;;;;;;;;;4975888;28;20034;-80
2023/09/02 05:00:18;;;;;;;0.30;0.30;;;;;;;;;;4975361;28;20046;-80
2023/09/02 05:02:46;;;;;;;0.20;0.13;;;;;;;;;;4974464;28;20558;-80
2023/09/02 05:05:14;;;;;;;0.20;0.10;;;;;;;;;;4987938;28;20095;-80
2023/09/02 05:07:40;;;;;;;0.20;0.08;;;;;;;;;;4983169;28;20078;-79
2023/09/02 05:10:06;;;;;;;0.20;0.10;;;;;;;;;;4971784;28;20042;-80
2023/09/02 05:12:33;;;;;;;0.20;0.10;;;;;;;;;;4970584;28;20047;-80
2023/09/02 05:15:00;;;;;;;0.20;0.10;;;;;;;;;;4957908;28;20105;-79
2023/09/02 05:17:26;;;;;;;0.55;0.30;;;;;;;;;;4970666;28;20137;-79
2023/09/02 05:19:52;;;;;;;0.20;0.00;;;;;;;;;;4970639;28;20385;-80
2023/09/02 05:22:18;;;;;;;0.20;0.10;;;;;;;;;;4964004;28;20121;-79
2023/09/02 05:24:44;;;;;;;0.20;0.10;;;;;;;;;;4967793;28;20379;-79
2023/09/02 05:27:11;;;;;;;0.20;0.00;;;;;;;;;;4956064;28;20031;-79
2023/09/02 05:29:37;;;;;;;0.63;0.40;;;;;;;;;;4971131;28;20054;-79
2023/09/02 05:32:03;;;;;;;0.30;0.20;;;;;;;;;;4974516;28;20038;-79
2023/09/02 05:34:29;;;;;;;0.20;0.10;;;;;;;;;;4969182;28;20516;-79
2023/09/02 05:36:55;;;;;;;0.32;0.20;;;;;;;;;;4972566;28;20105;-80
2023/09/02 05:39:21;;;;;;;0.20;0.20;;;;;;;;;;4954253;28;20110;-80
2023/09/02 05:41:47;;;;;;;0.20;0.10;;;;;;;;;;4972548;28;20548;-80
2023/09/02 05:44:13;;;;;;;0.20;0.00;;;;;;;;;;4957959;28;20043;-80
2023/09/02 05:46:39;;;;;;;0.20;0.03;;;;;;;;;;4961364;28;20549;-80
2023/09/02 05:49:05;;;;;;;0.20;0.10;;;;;;;;;;4967409;28;20039;-80
2023/09/02 05:51:31;;;;;;;0.20;0.00;;;;;;;;;;4953953;28;20046;-81
2023/09/02 05:53:57;;;;;;;0.20;0.10;;;;;;;;;;4952519;28;20049;-80
2023/09/02 05:56:23;;;;;;;0.30;0.30;;;;;;;;;;4966014;28;20046;-79
2023/09/02 05:58:49;;;;;;;0.20;0.15;;;;;;;;;;4950279;28;20059;-80
2023/09/02 06:01:15;;;;;;;0.22;0.22;;;;;;;;;;4957499;28;20042;-80
2023/09/02 06:03:42;;;;;;;0.20;0.10;;;;;;;;;;4953109;28;20043;-81
2023/09/02 06:06:11;;;;;;;0.77;0.40;;;;;;;;;;4974070;28;20038;-80
2023/09/02 06:08:37;;;;;;;0.20;0.10;;;;;;;;;;4974115;28;20051;-80
2023/09/02 06:11:04;;;;;;;0.35;0.20;;;;;;;;;;4968455;28;20039;-80
2023/09/02 06:13:30;;;;;;;0.20;0.20;;;;;;;;;;4966099;28;20138;-80
2023/09/02 06:16:03;;;;;;;0.20;0.10;;;;;;;;;;4954772;28;20206;-79
2023/09/02 06:18:29;;;;;;;1.20;0.47;;;;;;;;;;4965500;28;20045;-80
2023/09/02 06:20:55;;;;;;;0.20;0.10;;;;;;;;;;4978741;28;20074;-80
2023/09/02 06:23:21;;;;;;;1.20;0.22;;;;;;;;;;4960592;28;20547;-80
2023/09/02 06:25:57;;;;;;;0.60;0.45;;;;;;;;;;5005791;28;20069;-79
2023/09/02 06:28:23;;;;;;;0.20;0.10;;;;;;;;;;4972393;28;20279;-80
2023/09/02 06:30:49;;;;;;;0.20;0.10;;;;;;;;;;4967263;28;20777;-80
2023/09/02 06:33:16;;;;;;;0.20;0.10;;;;;;;;;;4970200;28;20496;-80
2023/09/02 06:35:42;;;;;;;0.20;0.10;;;;;;;;;;4993867;28;20039;-81
2023/09/02 06:38:08;;;;;;;0.20;0.10;;;;;;;;;;4983209;28;20070;-81
2023/09/02 06:40:34;;;;;;;0.55;0.25;;;;;;;;;;4999029;28;20303;-82
2023/09/02 06:43:00;;;;;;;0.32;0.32;;;;;;;;;;4980767;28;20046;-80
2023/09/02 06:45:26;;;;;;;0.20;0.10;;;;;;;;;;4964681;28;20478;-82
2023/09/02 06:47:52;;;;;;;0.20;0.10;;;;;;;;;;4978157;28;20111;-79
2023/09/02 06:50:18;;;;;;;0.43;0.30;;;;;;;;;;4967300;28;20034;-80
2023/09/02 06:52:44;;;;;;;0.20;0.10;;;;;;;;;;4968307;28;20031;-80
2023/09/02 06:55:10;;;;;;;0.20;0.10;;;;;;;;;;4984537;28;20240;-81
2023/09/02 06:57:40;;;;;;;0.20;0.10;;;;;;;;;;4965370;28;20082;-80
2023/09/02 07:00:06;;;;;;;0.28;0.17;;;;;;;;;;4988732;28;20047;-80
2023/09/02 07:02:32;;;;;;;0.20;0.00;;;;;;;;;;4977487;28;20202;-82
2023/09/02 07:04:58;;;;;;;0.20;0.10;;;;;;;;;;4994746;28;20042;-81
2023/09/02 07:07:25;;;;;;;0.20;0.13;;;;;;;;;;4960000;28;20043;-81
2023/09/02 07:09:52;;;;;;;0.20;0.10;;;;;;;;;;4958681;28;20054;-81
2023/09/02 07:12:18;;;;;;;0.20;0.10;;;;;;;;;;4957451;28;20567;-82
2023/09/02 07:14:44;;;;;;;0.20;0.00;;;;;;;;;;4960849;28;20039;-80
2023/09/02 07:17:10;;;;;;;0.20;0.17;;;;;;;;;;4978583;28;20524;-81
2023/09/02 07:19:36;;;;;;;0.20;0.15;;;;;;;;;;4971754;28;20047;-81
2023/09/02 07:22:02;;;;;;;0.30;0.22;;;;;;;;;;4967407;28;20486;-81
2023/09/02 07:24:28;;;;;;;0.50;0.20;;;;;;;;;;4964953;28;20169;-81
2023/09/02 07:26:54;;;;;;;0.20;0.10;;;;;;;;;;4990164;28;20046;-82
2023/09/02 07:29:21;;;;;;;0.20;0.10;;;;;;;;;;4963345;28;20488;-83
2023/09/02 07:31:47;;;;;;;0.30;0.15;;;;;;;;;;4956156;28;20039;-83
2023/09/02 07:34:14;;;;;;;0.30;0.20;;;;;;;;;;4987272;28;20046;-81
2023/09/02 07:36:40;;;;;;;0.20;0.10;;;;;;;;;;4978124;28;20031;-81
2023/09/02 07:39:06;;;;;;;0.22;0.20;;;;;;;;;;4992868;28;20088;-80
2023/09/02 07:41:32;;;;;;;0.20;0.10;;;;;;;;;;4976027;28;20039;-81
2023/09/02 07:43:58;;;;;;;0.20;0.10;;;;;;;;;;4954741;28;20109;-80
2023/09/02 07:46:24;;;;;;;1.02;0.50;;;;;;;;;;4957680;28;20046;-82
2023/09/02 07:48:51;;;;;;;0.40;0.15;;;;;;;;;;4977264;28;20097;-81
2023/09/02 07:51:17;;;;;;;0.43;0.17;;;;;;;;;;4955244;28;20050;-80
2023/09/02 07:53:44;;;;;;;0.20;0.10;;;;;;;;;;4959431;28;20066;-79
2023/09/02 07:56:10;;;;;;;0.30;0.30;;;;;;;;;;4957212;28;20252;-81
2023/09/02 07:58:36;;;;;;;0.30;0.20;;;;;;;;;;4957268;28;20134;-82
2023/09/02 08:01:02;;;;;;;0.20;0.20;;;;;;;;;;4956572;28;20086;-80
2023/09/02 08:03:28;;;;;;;0.20;0.17;;;;;;;;;;4956076;28;20089;-81
2023/09/02 08:05:54;;;;;;;0.25;0.22;;;;;;;;;;4962142;28;20678;-82
2023/09/02 08:08:20;;;;;;;0.20;0.17;;;;;;;;;;4964678;28;20427;-81
2023/09/02 08:10:46;;;;;;;0.30;0.20;;;;;;;;;;4944962;28;21191;-80
2023/09/02 08:13:12;;;;;;;0.20;0.20;;;;;;;;;;4958049;28;20034;-81
2023/09/02 08:15:38;;;;;;;0.30;0.25;;;;;;;;;;4957408;28;20496;-81
2023/09/02 08:18:05;;;;;;;0.20;0.08;;;;;;;;;;4955101;28;20054;-80
2023/09/02 08:20:31;;;;;;;0.52;0.25;;;;;;;;;;4989041;28;20042;-80
2023/09/02 08:22:57;;;;;;;0.20;0.10;;;;;;;;;;4993028;28;20050;-81
2023/09/02 08:25:24;;;;;;;0.50;0.20;;;;;;;;;;4965676;28;20042;-80
2023/09/02 08:27:50;;;;;;;0.20;0.20;;;;;;;;;;4953066;28;20045;-80
2023/09/02 08:30:17;;;;;;;0.20;0.10;;;;;;;;;;4976845;23;20101;-88
2023/09/02 08:32:43;;;;;;;0.20;0.20;;;;;;;;;;4967963;28;20050;-86
2023/09/02 08:35:12;;;;;;;0.20;0.20;;;;;;;;;;4968252;28;20386;-87
2023/09/02 08:37:40;;;;;;;0.20;0.10;;;;;;;;;;4979313;28;20033;-88
2023/09/02 08:40:07;;;;;;;0.20;0.17;;;;;;;;;;4981736;28;20034;-85
2023/09/02 08:42:36;;;;;;;0.20;0.10;;;;;;;;;;4965280;28;20041;-86
2023/09/02 08:45:06;;;;;;;0.65;0.38;;;;;;;;;;4974172;28;20557;-87
2023/09/02 08:47:34;;;;;;;0.20;0.10;;;;;;;;;;4984244;28;20042;-86
2023/09/02 08:50:00;;;;;;;0.20;0.10;;;;;;;;;;4983930;28;20045;-87
2023/09/02 08:52:34;;;;;;;0.20;0.00;;;;;;;;;;4982260;28;20204;-85
2023/09/02 08:55:01;;;;;;;0.20;0.13;;;;;;;;;;4979102;28;20037;-86
2023/09/02 08:57:27;;;;;;;0.20;0.10;;;;;;;;;;4983222;28;20449;-86
2023/09/02 08:59:53;;;;;;;0.40;0.30;;;;;;;;;;4966974;28;20494;-86
2023/09/02 09:02:19;;;;;;;0.40;0.30;;;;;;;;;;4981828;28;21544;-85
2023/09/02 09:04:48;;;;;;;0.20;0.13;;;;;;;;;;4974340;28;20039;-85
2023/09/02 09:07:14;;;;;;;0.20;0.10;;;;;;;;;;4957659;28;20040;-84
2023/09/02 09:09:42;;;;;;;0.30;0.10;;;;;;;;;;4975913;28;20034;-86
2023/09/02 09:12:09;;;;;;;0.30;0.22;;;;;;;;;;4967601;28;20104;-87
2023/09/02 09:14:41;;;;;;;0.20;0.10;;;;;;;;;;4977980;28;20104;-86
2023/09/02 09:17:07;;;;;;;0.93;0.37;;;;;;;;;;4980625;28;20073;-85
2023/09/02 09:19:33;;;;;;;0.28;0.20;;;;;;;;;;4982609;28;20457;-86
2023/09/02 09:22:02;;;;;;;0.20;0.20;;;;;;;;;;4963723;28;20106;-87
2023/09/02 09:24:29;;;;;;;0.60;0.40;;;;;;;;;;4953251;28;20503;-86
2023/09/02 09:26:55;;;;;;;0.30;0.30;;;;;;;;;;4973166;28;20041;-83
2023/09/02 09:29:21;;;;;;;0.20;0.10;;;;;;;;;;4980376;28;20034;-85
2023/09/02 09:31:48;;;;;;;0.30;0.20;;;;;;;;;;4967855;28;20384;-84
2023/09/02 09:34:14;;;;;;;0.20;0.20;;;;;;;;;;4977950;28;20224;-84
2023/09/02 09:36:44;;;;;;;1.85;0.85;;;;;;;;;;4961866;28;20076;-84
2023/09/02 09:39:13;;;;;;;0.20;0.10;;;;;;;;;;4970991;28;20042;-85
2023/09/02 09:41:46;;;;;;;1.00;0.40;;;;;;;;;;4987129;28;20473;-85
2023/09/02 09:44:16;;;;;;;0.20;0.20;;;;;;;;;;4979483;28;20125;-83
2023/09/02 09:46:51;;;;;;;0.45;0.45;;;;;;;;;;4975791;28;20050;-84
2023/09/02 09:49:28;;;;;;;0.20;0.10;;;;;;;;;;4972021;28;20038;-83
2023/09/02 09:52:06;;;;;;;0.38;0.30;;;;;;;;;;4966997;28;20033;-84
2023/09/02 09:54:40;;;;;;;0.50;0.35;;;;;;;;;;4970701;28;20140;-85
2023/09/02 09:57:11;;;;;;;0.20;0.00;;;;;;;;;;4985095;28;20399;-83
2023/09/02 09:59:49;;;;;;;0.20;0.10;;;;;;;;;;4984806;28;20049;-86
2023/09/02 10:02:17;;;;;;;0.65;0.65;;;;;;;;;;4968877;28;20077;-86
2023/09/02 10:04:49;;;;;;;0.30;0.10;;;;;;;;;;4966966;28;20034;-86
2023/09/02 10:07:17;;;;;;;1.17;0.57;;;;;;;;;;4971316;28;20038;-85
2023/09/02 10:09:44;;;;;;;0.22;0.13;;;;;;;;;;4967479;28;20078;-86
2023/09/02 10:12:13;;;;;;;0.30;0.20;;;;;;;;;;4969400;28;20552;-86
2023/09/02 10:14:41;;;;;;;0.40;0.22;;;;;;;;;;4979380;28;20084;-86
2023/09/02 10:17:12;;;;;;;0.30;0.30;;;;;;;;;;4995340;28;20040;-87
2023/09/02 10:19:39;;;;;;;0.30;0.20;;;;;;;;;;4968692;28;20053;-85
2023/09/02 10:22:06;;;;;;;0.40;0.32;;;;;;;;;;4965950;28;20083;-85
2023/09/02 10:24:41;;;;;;;0.32;0.13;;;;;;;;;;4965691;28;20037;-87
2023/09/02 10:27:24;;;;;;;0.20;0.10;;;;;;;;;;4981128;28;20038;-88
2023/09/02 10:29:57;;;;;;;0.20;0.10;;;;;;;;;;4972015;28;20125;-86
2023/09/02 10:33:01;;;;;;;;;;;;;;;;;;;;;
2023/09/02 10:35:50;;;;;;;0.68;0.50;;;;;;;;;;4987289;28;20060;-85
2023/09/02 10:38:19;;;;;;;0.30;0.20;;;;;;;;;;4980263;28;20046;-86
2023/09/02 10:40:49;;;;;;;0.20;0.10;;;;;;;;;;4966260;28;20038;-85
2023/09/02 10:43:15;;;;;;;0.35;0.17;;;;;;;;;;4979130;28;20156;-84
2023/09/02 10:45:44;;;;;;;0.20;0.10;;;;;;;;;;4978996;28;20034;-85
2023/09/02 10:48:13;;;;;;;0.25;0.13;;;;;;;;;;4983230;28;20125;-82
2023/09/02 10:50:40;;;;;;;0.40;0.30;;;;;;;;;;4988028;28;20521;-83
2023/09/02 10:53:06;;;;;;;0.20;0.20;;;;;;;;;;4976685;28;20049;-86
2023/09/02 10:55:32;;;;;;;0.47;0.40;;;;;;;;;;4968471;28;20603;-84
2023/09/02 10:57:59;;;;;;;0.20;0.10;;;;;;;;;;4986513;28;20062;-84
2023/09/02 11:00:27;;;;;;;0.30;0.30;;;;;;;;;;4968570;28;20520;-84
2023/09/02 11:02:54;;;;;;;0.65;0.43;;;;;;;;;;4969479;28;20031;-86
2023/09/02 11:05:21;;;;;;;0.20;0.10;;;;;;;;;;4963401;28;20033;-84
2023/09/02 11:07:48;;;;;;;0.25;0.25;;;;;;;;;;4980598;28;20050;-84
2023/09/02 11:10:15;;;;;;;0.20;0.10;;;;;;;;;;4968142;28;20590;-85
2023/09/02 11:12:59;;;;;;;0.30;0.25;;;;;;;;;;4956959;28;20487;-85
2023/09/02 11:15:26;;;;;;;0.25;0.13;;;;;;;;;;4984948;28;20983;-85
2023/09/02 11:17:52;;;;;;;0.28;0.10;;;;;;;;;;4966771;28;20471;-86
2023/09/02 11:20:20;;;;;;;0.20;0.10;;;;;;;;;;4967595;28;20034;-85
2023/09/02 11:22:49;;;;;;;0.20;0.20;;;;;;;;;;4977817;28;20143;-84
2023/09/02 11:25:24;;;;;;;0.20;0.10;;;;;;;;;;4984467;28;20683;-85
2023/09/02 11:27:50;;;;;;;0.28;0.20;;;;;;;;;;4982821;28;20035;-84
2023/09/02 11:30:17;;;;;;;0.30;0.20;;;;;;;;;;4982463;28;20124;-84
2023/09/02 11:32:43;;;;;;;0.35;0.25;;;;;;;;;;4964096;28;20092;-83
2023/09/02 11:35:11;;;;;;;0.20;0.10;;;;;;;;;;4978656;28;20058;-83
2023/09/02 11:37:37;;;;;;;0.30;0.13;;;;;;;;;;4968894;28;20030;-82
2023/09/02 11:40:16;;;;;;;0.25;0.20;;;;;;;;;;4982107;28;20549;-85
2023/09/02 11:42:48;;;;;;;0.32;0.25;;;;;;;;;;4975443;28;20038;-84
2023/09/02 11:45:17;;;;;;;0.60;0.40;;;;;;;;;;4959595;28;20038;-84
2023/09/02 11:47:43;;;;;;;0.50;0.40;;;;;;;;;;4982475;28;20097;-83
2023/09/02 11:50:17;;;;;;;0.50;0.50;;;;;;;;;;4984379;28;20374;-85
2023/09/02 11:52:43;;;;;;;0.40;0.20;;;;;;;;;;4981637;28;20026;-85
2023/09/02 11:55:11;;;;;;;0.45;0.20;;;;;;;;;;4976452;28;20037;-84
2023/09/02 11:57:37;;;;;;;0.40;0.32;;;;;;;;;;4984055;28;20092;-84
2023/09/02 12:00:03;;;;;;;0.20;0.10;;;;;;;;;;4982508;28;20073;-84
2023/09/02 12:02:29;;;;;;;0.32;0.30;;;;;;;;;;4960717;28;20054;-84
2023/09/02 12:04:55;;;;;;;0.20;0.13;;;;;;;;;;4967967;28;20122;-85
2023/09/02 12:07:24;;;;;;;0.20;0.10;;;;;;;;;;4979253;28;20069;-84
2023/09/02 12:09:51;;;;;;;0.50;0.28;;;;;;;;;;4984297;28;20052;-85
2023/09/02 12:12:17;;;;;;;0.50;0.30;;;;;;;;;;4969609;28;20541;-85
2023/09/02 12:14:43;;;;;;;0.30;0.13;;;;;;;;;;4967459;28;20506;-86
2023/09/02 12:17:09;;;;;;;0.30;0.20;;;;;;;;;;4978305;28;20073;-84
2023/09/02 12:19:35;;;;;;;0.20;0.10;;;;;;;;;;4969872;28;20045;-85
2023/09/02 12:22:01;;;;;;;0.20;0.20;;;;;;;;;;4982614;28;20045;-84
2023/09/02 12:24:29;;;;;;;0.28;0.17;;;;;;;;;;4971380;28;20053;-84
2023/09/02 12:26:55;;;;;;;1.33;0.47;;;;;;;;;;4980440;28;20108;-85
2023/09/02 12:29:25;;;;;;;0.20;0.13;;;;;;;;;;4966869;28;20038;-82
2023/09/02 12:32:00;;;;;;;0.30;0.30;;;;;;;;;;4981472;28;20114;-84
2023/09/02 12:34:34;;;;;;;0.20;0.10;;;;;;;;;;4971980;28;20065;-84
2023/09/02 12:37:20;;;;;;;0.38;0.20;;;;;;;;;;4977553;28;20037;-85
2023/09/02 12:39:50;;;;;;;0.20;0.10;;;;;;;;;;4966121;28;20164;-84
2023/09/02 12:42:20;;;;;;;0.20;0.10;;;;;;;;;;4982213;28;20056;-84
2023/09/02 12:44:51;;;;;;;0.20;0.10;;;;;;;;;;4962481;28;20427;-85
2023/09/02 12:47:26;;;;;;;0.28;0.22;;;;;;;;;;4973119;28;20043;-84
2023/09/02 12:49:53;;;;;;;0.20;0.10;;;;;;;;;;4968421;28;20042;-83
2023/09/02 12:52:23;;;;;;;0.20;0.10;;;;;;;;;;4982188;28;20164;-84
2023/09/02 12:54:59;;;;;;;0.57;0.38;;;;;;;;;;4968918;28;20128;-84
2023/09/02 12:57:29;;;;;;;0.30;0.30;;;;;;;;;;4973289;28;20120;-84
2023/09/02 12:59:55;;;;;;;0.82;0.38;;;;;;;;;;4978338;28;20502;-85
2023/09/02 13:02:24;;;;;;;0.20;0.20;;;;;;;;;;4966780;28;20041;-83
2023/09/02 13:04:50;;;;;;;0.20;0.20;;;;;;;;;;4978636;28;20061;-85
2023/09/02 13:07:18;;;;;;;0.30;0.20;;;;;;;;;;4968238;28;20050;-86
2023/09/02 13:09:44;;;;;;;0.57;0.40;;;;;;;;;;4959498;28;20069;-84
2023/09/02 13:12:10;;;;;;;0.20;0.17;;;;;;;;;;4987644;28;20107;-84
2023/09/02 13:14:39;;;;;;;0.30;0.28;;;;;;;;;;4988668;28;20049;-83
2023/09/02 13:17:06;;;;;;;1.35;0.30;;;;;;;;;;4970239;28;20411;-83
2023/09/02 13:19:32;;;;;;;0.38;0.38;;;;;;;;;;4988615;28;20065;-84
2023/09/02 13:21:58;;;;;;;1.15;0.22;;;;;;;;;;4990914;28;20417;-83
2023/09/02 13:24:25;;;;;;;0.22;0.17;;;;;;;;;;4983232;28;20079;-83
2023/09/02 13:26:51;;;;;;;0.20;0.20;;;;;;;;;;4979637;28;20077;-81
2023/09/02 13:29:18;;;;;;;0.20;0.10;;;;;;;;;;4969435;28;20042;-83
2023/09/02 13:31:45;;;;;;;0.20;0.10;;;;;;;;;;4975739;28;20034;-84
2023/09/02 13:34:30;;;;;;;0.25;0.20;;;;;;;;;;4981923;28;20038;-84
2023/09/02 13:37:19;;;;;;;0.47;0.20;;;;;;;;;;4986635;28;20069;-85
2023/09/02 13:39:46;;;;;;;0.20;0.10;;;;;;;;;;4965583;28;20552;-83
2023/09/02 13:42:20;;;;;;;0.20;0.10;;;;;;;;;;4972890;28;20061;-84
2023/09/02 13:44:46;;;;;;;0.75;0.40;;;;;;;;;;4991573;28;20127;-84
2023/09/02 13:47:14;;;;;;;0.20;0.10;;;;;;;;;;4990362;28;20041;-84
2023/09/02 13:49:41;;;;;;;0.22;0.10;;;;;;;;;;5005413;28;20034;-84
2023/09/02 13:52:09;;;;;;;0.35;0.30;;;;;;;;;;4992234;28;20103;-85
2023/09/02 13:54:35;;;;;;;0.50;0.35;;;;;;;;;;4998686;28;20048;-83
2023/09/02 13:57:01;;;;;;;0.20;0.08;;;;;;;;;;4990466;28;20037;-84
2023/09/02 13:59:27;;;;;;;0.25;0.20;;;;;;;;;;4973533;28;20125;-84
2023/09/02 14:01:54;;;;;;;0.20;0.20;;;;;;;;;;4981086;28;20596;-83
2023/09/02 14:04:20;;;;;;;2.30;0.20;;;;;;;;;;4988253;28;20045;-83
2023/09/02 14:06:46;;;;;;;0.20;0.10;;;;;;;;;;5006984;28;20038;-84
2023/09/02 14:09:23;;;;;;;0.50;0.15;;;;;;;;;;4985146;28;20125;-82
2023/09/02 14:11:53;;;;;;;0.20;0.10;;;;;;;;;;4981243;28;20045;-83
2023/09/02 14:14:20;;;;;;;0.20;0.15;;;;;;;;;;4979765;28;20046;-83
2023/09/02 14:16:48;;;;;;;0.30;0.10;;;;;;;;;;4979780;28;20037;-84
2023/09/02 14:19:14;;;;;;;0.22;0.20;;;;;;;;;;4987021;28;20353;-84
2023/09/02 14:21:40;;;;;;;0.20;0.10;;;;;;;;;;4982668;28;20458;-82
2023/09/02 14:24:06;;;;;;;0.20;0.10;;;;;;;;;;4983646;28;20042;-84
2023/09/02 14:26:32;;;;;;;0.43;0.17;;;;;;;;;;4970281;28;20116;-84
2023/09/02 14:29:01;;;;;;;0.50;0.43;;;;;;;;;;5001686;23;20161;-83
2023/09/02 14:31:30;;;;;;;0.20;0.10;;;;;;;;;;4941692;28;20050;-82
2023/09/02 14:33:56;;;;;;;0.20;0.10;;;;;;;;;;4947889;28;20055;-81
2023/09/02 14:36:22;;;;;;;0.30;0.30;;;;;;;;;;4940008;28;20047;-80
2023/09/02 14:38:48;;;;;;;0.20;0.10;;;;;;;;;;4929348;28;20039;-83
2023/09/02 14:41:14;;;;;;;0.20;0.10;;;;;;;;;;4950607;28;20342;-82
2023/09/02 14:43:44;;;;;;;0.20;0.10;;;;;;;;;;4949423;28;20047;-83
2023/09/02 14:46:10;;;;;;;0.20;0.10;;;;;;;;;;4951464;28;20043;-83
2023/09/02 14:48:36;;;;;;;0.40;0.20;;;;;;;;;;4950059;28;20129;-82